Time;durP1;ratioP1;P1;durP2;ratioP2;P2;SDS_P1;SDS_P2;PMS_P1;PMS_P2;Temp;Humidity;BMP_temperature;BMP_pressure;BME280_temperature;BME280_humidity;BME280_pressure;Samples;Min_cycle;Max_cycle;Signal;HPM_P1;HPM_P2
2022/12/07 00:02:15;;;;;;;23.77;13.47;;;;;;;1.64;100.00;101509.00;10581165;27;20047;-70
2022/12/07 00:07:16;;;;;;;23.02;12.52;;;;;;;1.55;100.00;101503.63;10563936;28;20032;-71
2022/12/07 00:12:16;;;;;;;21.75;12.10;;;;;;;1.72;100.00;101515.22;10580539;28;20044;-70
2022/12/07 00:17:17;;;;;;;18.80;11.68;;;;;;;1.87;100.00;101517.16;10563177;28;20039;-71
2022/12/07 00:22:17;;;;;;;15.13;11.18;;;;;;;1.93;100.00;101513.69;10563553;28;20035;-71
2022/12/07 00:27:18;;;;;;;14.20;11.25;;;;;;;1.95;100.00;101507.06;10579882;28;20036;-71
2022/12/07 00:32:18;;;;;;;11.30;9.93;;;;;;;1.91;100.00;101481.28;10579491;28;20067;-71
2022/12/07 00:37:19;;;;;;;13.85;8.95;;;;;;;2.14;100.00;101494.84;10581973;28;20085;-71
2022/12/07 00:42:19;;;;;;;10.93;9.00;;;;;;;2.20;100.00;101494.09;10582283;28;20032;-70
2022/12/07 00:47:20;;;;;;;13.63;10.07;;;;;;;2.18;100.00;101476.31;10539847;28;21499;-73
2022/12/07 00:52:20;;;;;;;21.55;10.32;;;;;;;2.24;100.00;101485.59;10577391;28;20067;-71
2022/12/07 00:57:21;;;;;;;11.52;7.95;;;;;;;2.37;100.00;101521.97;10568204;27;20113;-71
2022/12/07 01:02:22;;;;;;;11.18;7.50;;;;;;;2.60;100.00;101513.78;10587621;27;20040;-71
2022/12/07 01:07:22;;;;;;;9.00;7.95;;;;;;;2.86;100.00;101498.88;10587302;27;20092;-72
2022/12/07 01:12:23;;;;;;;8.85;7.50;;;;;;;2.98;100.00;101472.88;10587828;28;20105;-71
2022/12/07 01:17:23;;;;;;;8.40;7.43;;;;;;;3.03;100.00;101470.41;10586465;27;20036;-71
2022/12/07 01:22:23;;;;;;;8.73;7.55;;;;;;;3.01;100.00;101488.81;10589503;27;20046;-71
2022/12/07 01:27:24;;;;;;;7.97;7.20;;;;;;;2.94;100.00;101503.38;10569599;27;20387;-72
2022/12/07 01:32:24;;;;;;;7.53;7.00;;;;;;;2.92;100.00;101481.78;10587149;27;20047;-71
2022/12/07 01:37:25;;;;;;;11.27;7.68;;;;;;;2.79;100.00;101451.69;10587366;27;20104;-70
2022/12/07 01:42:25;;;;;;;11.45;7.90;;;;;;;2.96;100.00;101490.41;10587929;27;20065;-71
2022/12/07 01:47:26;;;;;;;11.52;7.90;;;;;;;2.78;100.00;101436.41;10584535;27;20042;-70
2022/12/07 01:52:29;;;;;;;8.43;7.57;;;;;;;2.92;100.00;101483.69;10586273;27;20050;-72
2022/12/07 01:57:30;;;;;;;11.97;8.20;;;;;;;2.83;100.00;101475.63;10568277;27;20084;-73
2022/12/07 02:02:33;;;;;;;9.50;7.50;;;;;;;2.78;100.00;101466.31;10568508;27;20072;-71
2022/12/07 02:07:34;;;;;;;13.65;8.23;;;;;;;2.80;100.00;101472.41;10581990;27;20036;-71
2022/12/07 02:12:36;;;;;;;8.88;7.75;;;;;;;2.85;100.00;101505.31;10567511;27;20048;-71
2022/12/07 02:18:09;;;;;;;9.07;7.55;;;;;;;2.95;100.00;101495.00;10586254;27;20032;-70
2022/12/07 02:23:23;;;;;;;12.02;6.80;;;;;;;3.06;100.00;101487.38;10564762;27;20103;-70
2022/12/07 02:28:36;;;;;;;9.70;7.07;;;;;;;3.09;100.00;101476.16;10567287;27;20051;-69
2022/12/07 02:33:41;;;;;;;7.30;6.78;;;;;;;2.91;100.00;101463.75;10567895;27;20800;-70
2022/12/07 02:38:47;;;;;;;7.32;6.38;;;;;;;2.79;100.00;101474.31;10567758;27;20028;-71
2022/12/07 02:43:53;;;;;;;7.22;6.63;;;;;;;2.63;100.00;101469.88;10585984;27;20065;-71
2022/12/07 02:48:53;;;;;;;7.40;6.75;;;;;;;2.53;100.00;101460.34;10566850;27;20035;-71
2022/12/07 02:53:54;;;;;;;15.32;6.78;;;;;;;2.43;100.00;101466.03;10532960;27;20043;-71
2022/12/07 02:59:17;;;;;;;9.38;7.00;;;;;;;2.37;100.00;101461.34;10583249;27;20040;-71
2022/12/07 03:04:26;;;;;;;16.48;7.95;;;;;;;2.34;100.00;101461.72;10568430;28;20039;-71
2022/12/07 03:09:34;;;;;;;7.20;6.22;;;;;;;2.31;100.00;101443.06;10583908;27;20059;-72
2022/12/07 03:14:39;;;;;;;7.25;6.38;;;;;;;2.49;100.00;101499.78;10565116;27;20050;-70
2022/12/07 03:19:39;;;;;;;12.50;7.32;;;;;;;2.66;100.00;101467.81;10539690;28;20039;-71
2022/12/07 03:24:46;;;;;;;6.75;6.13;;;;;;;2.77;100.00;101459.19;10539813;28;20109;-71
2022/12/07 03:29:51;;;;;;;9.23;6.60;;;;;;;2.74;100.00;101440.53;10522779;28;20040;-70
2022/12/07 03:35:03;;;;;;;13.32;6.88;;;;;;;2.73;100.00;101444.28;10539792;28;20048;-70
2022/12/07 03:40:23;;;;;;;7.00;6.50;;;;;;;2.59;100.00;101430.53;10522486;28;20038;-71
2022/12/07 03:45:27;;;;;;;9.48;6.53;;;;;;;2.52;100.00;101443.19;10548211;28;20069;-70
2022/12/07 03:50:49;;;;;;;12.93;6.93;;;;;;;2.36;100.00;101435.22;10582087;27;20039;-70
2022/12/07 03:55:49;;;;;;;8.40;6.95;;;;;;;2.20;100.00;101433.50;10581734;27;20099;-72
2022/12/07 04:00:50;;;;;;;15.50;6.80;;;;;;;2.06;100.00;101428.88;10562215;27;20040;-70
2022/12/07 04:05:50;;;;;;;8.50;6.60;;;;;;;2.07;100.00;101434.16;10580834;27;20031;-70
2022/12/07 04:10:51;;;;;;;12.82;6.13;;;;;;;2.28;100.00;101422.56;10563546;27;20028;-71
2022/12/07 04:15:51;;;;;;;6.57;5.97;;;;;;;2.50;100.00;101431.66;10582521;27;20040;-71
2022/12/07 04:20:51;;;;;;;10.57;6.70;;;;;;;2.37;100.00;101409.72;10580329;28;20036;-70
2022/12/07 04:25:52;;;;;;;10.83;6.63;;;;;;;2.41;100.00;101420.00;10582746;28;20035;-71
2022/12/07 04:30:52;;;;;;;9.85;6.65;;;;;;;2.34;100.00;101423.69;10581215;28;20461;-71
2022/12/07 04:35:53;;;;;;;7.43;6.82;;;;;;;2.28;100.00;101419.00;10580159;28;20179;-70
2022/12/07 04:40:53;;;;;;;7.00;6.45;;;;;;;2.28;100.00;101432.59;10546541;28;20055;-70
2022/12/07 04:45:54;;;;;;;6.60;6.20;;;;;;;2.21;100.00;101436.03;10579039;28;20089;-71
2022/12/07 04:50:54;;;;;;;6.32;5.82;;;;;;;2.31;100.00;101437.63;10562999;28;20028;-71
2022/12/07 04:55:55;;;;;;;6.32;5.80;;;;;;;2.37;100.00;101429.56;10560696;28;20099;-71
2022/12/07 05:00:55;;;;;;;7.73;5.70;;;;;;;2.42;100.00;101434.47;10579904;28;20077;-71
2022/12/07 05:05:56;;;;;;;6.88;5.15;;;;;;;2.50;100.00;101426.22;10579366;28;20116;-70
2022/12/07 05:10:56;;;;;;;8.77;5.25;;;;;;;2.53;100.00;101420.41;10581587;28;20093;-71
2022/12/07 05:15:57;;;;;;;11.13;5.38;;;;;;;2.46;100.00;101408.59;10547813;28;20040;-71
2022/12/07 05:20:57;;;;;;;7.05;4.88;;;;;;;2.60;100.00;101415.91;10537081;28;20042;-70
2022/12/07 05:25:58;;;;;;;7.80;5.43;;;;;;;2.59;100.00;101413.38;10554604;28;20379;-70
2022/12/07 05:30:59;;;;;;;9.60;5.78;;;;;;;2.35;100.00;101406.34;10536612;28;20044;-71
2022/12/07 05:36:05;;;;;;;6.07;5.13;;;;;;;2.16;100.00;101391.44;10519800;28;20059;-70
2022/12/07 05:41:06;;;;;;;8.20;4.90;;;;;;;2.04;100.00;101392.91;10544889;28;20118;-70
2022/12/07 05:46:06;;;;;;;8.35;5.10;;;;;;;2.11;100.00;101404.72;10586670;27;20038;-70
2022/12/07 05:51:07;;;;;;;5.47;4.80;;;;;;;1.73;100.00;101326.84;10586529;27;20507;-70
2022/12/07 05:56:07;;;;;;;6.07;5.47;;;;;;;2.01;100.00;101367.00;10586466;27;20044;-70
2022/12/07 06:01:08;;;;;;;6.65;4.93;;;;;;;2.05;100.00;101394.59;10584439;27;20039;-71
2022/12/07 06:06:08;;;;;;;6.07;4.90;;;;;;;2.10;100.00;101398.44;10567913;27;20068;-71
2022/12/07 06:16:28;;;;;;;7.75;4.63;;;;;;;2.15;100.00;101393.31;10588086;27;20043;-70
2022/12/07 06:21:28;;;;;;;5.50;4.90;;;;;;;2.00;100.00;101387.00;10626100;27;20039;-70
2022/12/07 06:26:29;;;;;;;17.40;6.10;;;;;;;1.81;100.00;101391.09;10593289;27;20275;-71
2022/12/07 06:31:29;;;;;;;9.20;5.63;;;;;;;1.75;100.00;101408.97;10609411;27;20046;-71
2022/12/07 06:36:30;;;;;;;15.38;6.45;;;;;;;1.67;100.00;101406.31;10626870;27;20024;-71
2022/12/07 06:41:30;;;;;;;12.32;6.95;;;;;;;1.71;100.00;101428.50;10576647;27;20055;-71
2022/12/07 06:46:31;;;;;;;14.17;7.27;;;;;;;1.88;100.00;101410.22;10585684;27;20436;-72
2022/12/07 06:51:32;;;;;;;13.67;6.97;;;;;;;1.91;100.00;101399.00;10567366;27;20072;-69
2022/12/07 06:56:33;;;;;;;15.43;5.93;;;;;;;1.97;100.00;101418.09;10566700;28;20040;-71
2022/12/07 07:01:34;;;;;;;14.63;7.57;;;;;;;1.79;100.00;101402.13;10566020;27;21427;-70
2022/12/07 07:06:35;;;;;;;13.07;9.38;;;;;;;1.85;100.00;101416.03;10565871;27;20035;-70
2022/12/07 07:11:35;;;;;;;13.50;7.30;;;;;;;1.53;100.00;101390.81;10563576;27;20052;-71
2022/12/07 07:16:35;;;;;;;10.25;7.65;;;;;;;1.50;100.00;101413.75;10598675;27;20027;-71
2022/12/07 07:21:36;;;;;;;7.53;6.78;;;;;;;1.34;100.00;101413.88;10584342;27;20150;-70
2022/12/07 07:26:37;;;;;;;11.43;6.60;;;;;;;0.76;100.00;101351.03;10565437;27;20103;-71
2022/12/07 07:31:37;;;;;;;13.97;6.10;;;;;;;1.04;100.00;101412.91;10583309;27;20043;-71
2022/12/07 07:36:37;;;;;;;14.75;7.03;;;;;;;1.13;100.00;101433.50;10560722;27;20055;-71
2022/12/07 07:41:38;;;;;;;19.00;9.70;;;;;;;1.11;100.00;101419.28;10583534;27;20046;-69
2022/12/07 07:46:39;;;;;;;19.48;7.25;;;;;;;1.18;100.00;101447.38;10581617;27;20043;-71
2022/12/07 07:51:39;;;;;;;18.85;7.45;;;;;;;1.18;100.00;101431.94;10581884;27;20059;-71
2022/12/07 07:56:40;;;;;;;14.77;7.80;;;;;;;1.25;100.00;101448.34;10564572;27;20028;-70
2022/12/07 08:01:40;;;;;;;14.73;8.07;;;;;;;1.41;100.00;101440.09;10579966;27;20031;-71
2022/12/07 08:06:42;;;;;;;14.17;9.57;;;;;;;1.58;100.00;101442.69;10581501;28;20031;-71
2022/12/07 08:11:42;;;;;;;10.50;7.27;;;;;;;1.75;100.00;101436.09;10583118;28;20108;-71
2022/12/07 08:16:42;;;;;;;10.60;7.22;;;;;;;1.69;100.00;101406.97;10581356;27;20024;-70
2022/12/07 08:21:43;;;;;;;7.70;6.95;;;;;;;1.92;100.00;101417.81;10580178;28;20031;-71
2022/12/07 08:26:43;;;;;;;8.15;7.32;;;;;;;2.06;100.00;101432.44;10580336;28;20032;-71
2022/12/07 08:31:44;;;;;;;8.82;7.82;;;;;;;2.12;100.00;101433.59;10577540;28;20046;-70
2022/12/07 08:36:44;;;;;;;11.90;6.82;;;;;;;2.21;100.00;101438.75;10542855;28;20036;-71
2022/12/07 08:41:45;;;;;;;7.38;6.75;;;;;;;2.20;100.00;101414.47;10522000;28;20061;-71
2022/12/07 08:46:52;;;;;;;9.35;8.00;;;;;;;2.25;100.00;101408.50;10521826;28;20020;-71
2022/12/07 08:51:52;;;;;;;9.75;7.22;;;;;;;2.42;100.00;101420.88;10552371;28;20035;-70
2022/12/07 08:56:53;;;;;;;9.90;7.55;;;;;;;2.65;100.00;101438.94;10561077;28;20031;-71
2022/12/07 09:01:53;;;;;;;15.23;7.72;;;;;;;2.78;100.00;101441.84;10578500;28;20376;-71
2022/12/07 09:06:54;;;;;;;8.60;7.40;;;;;;;2.74;100.00;101444.09;10581557;28;20035;-71
2022/12/07 09:11:54;;;;;;;7.38;6.68;;;;;;;2.38;100.00;101390.50;10562956;28;20038;-71
2022/12/07 09:16:55;;;;;;;11.38;7.30;;;;;;;2.78;100.00;101445.41;10582531;27;20402;-71
2022/12/07 09:21:55;;;;;;;9.00;6.60;;;;;;;2.86;100.00;101444.47;10570618;27;20039;-70
2022/12/07 09:26:56;;;;;;;12.43;6.72;;;;;;;2.76;100.00;101403.13;10588458;27;20031;-71
2022/12/07 09:31:57;;;;;;;6.10;5.60;;;;;;;2.67;100.00;101367.06;10569335;27;20066;-71
2022/12/07 09:36:58;;;;;;;11.65;5.18;;;;;;;3.18;100.00;101417.84;10588084;27;20047;-71
2022/12/07 09:41:58;;;;;;;9.43;4.72;;;;;;;3.32;100.00;101422.41;10568983;27;20044;-71
2022/12/07 09:46:59;;;;;;;8.25;5.07;;;;;;;3.53;100.00;101426.16;10589583;27;20023;-71
2022/12/07 09:52:19;;;;;;;4.93;4.53;;;;;;;3.64;100.00;101428.41;10588776;27;20038;-71
2022/12/07 09:57:25;;;;;;;11.65;4.07;;;;;;;3.76;100.00;101415.06;10569487;27;20096;-71
2022/12/07 10:02:41;;;;;;;8.27;4.40;;;;;;;4.05;100.00;101419.50;10550759;27;20036;-70
2022/12/07 10:07:42;;;;;;;5.40;3.15;;;;;;;4.10;100.00;101417.03;10579003;27;20051;-71
2022/12/07 10:13:06;;;;;;;8.55;2.92;;;;;;;4.29;100.00;101423.66;10542819;28;20042;-70
2022/12/07 10:18:15;;;;;;;7.20;2.50;;;;;;;4.39;100.00;101409.69;10553865;27;20165;-71
2022/12/07 10:23:17;;;;;;;10.98;3.15;;;;;;;4.42;100.00;101409.28;10585285;27;20054;-71
2022/12/07 10:28:18;;;;;;;7.43;1.88;;;;;;;4.59;100.00;101413.38;10567325;27;20038;-70
2022/12/07 10:33:33;;;;;;;19.13;3.65;;;;;;;4.75;100.00;101409.44;10581142;27;20040;-71
2022/12/07 10:38:34;;;;;;;13.90;1.92;;;;;;;4.83;100.00;101409.28;10562796;27;20038;-70
2022/12/07 10:43:34;;;;;;;6.70;1.70;;;;;;;4.88;100.00;101381.41;10544132;28;20404;-71
2022/12/07 10:49:03;;;;;;;7.13;1.67;;;;;;;5.05;100.00;101403.72;10560943;27;20036;-71
2022/12/07 10:54:12;;;;;;;5.75;1.63;;;;;;;5.00;100.00;101401.59;10561669;28;20077;-70
2022/12/07 10:59:15;;;;;;;6.00;1.42;;;;;;;4.98;100.00;101392.78;10562375;27;20065;-70
2022/12/07 11:04:47;;;;;;;4.95;1.40;;;;;;;4.88;100.00;101370.50;10563216;28;20051;-71
2022/12/07 11:10:26;;;;;;;7.13;2.22;;;;;;;4.83;100.00;101365.63;10550345;27;20103;-70
2022/12/07 11:15:34;;;;;;;7.63;1.23;;;;;;;4.92;100.00;101363.59;10621691;27;20046;-70
2022/12/07 11:20:41;;;;;;;10.63;1.33;;;;;;;5.11;100.00;101342.00;10603752;27;20039;-70
2022/12/07 11:25:41;;;;;;;;;;;;;;;5.22;100.00;101344.94;10623543;27;20054;-70
2022/12/07 11:31:07;;;;;;;6.07;0.68;;;;;;;5.27;100.00;101338.88;10622522;27;20325;-70
2022/12/07 11:36:11;;;;;;;4.88;0.73;;;;;;;5.26;100.00;101339.94;10616997;27;20368;-70
2022/12/07 11:41:21;;;;;;;3.05;1.20;;;;;;;5.33;100.00;101334.47;10624504;27;20065;-70
2022/12/07 11:46:28;;;;;;;6.18;0.77;;;;;;;5.06;100.00;101304.41;10603407;27;20055;-70
2022/12/07 11:51:31;;;;;;;4.97;1.75;;;;;;;5.32;100.00;101324.63;10589560;27;20046;-70
2022/12/07 11:56:31;;;;;;;4.03;1.10;;;;;;;5.44;100.00;101325.69;10588333;27;20047;-70
2022/12/07 12:01:38;;;;;;;6.40;1.27;;;;;;;5.68;100.00;101310.53;10603727;27;20039;-70
2022/12/07 12:06:40;;;;;;;9.30;1.60;;;;;;;5.22;100.00;101303.19;10621848;27;20031;-70
2022/12/07 12:11:52;;;;;;;6.50;1.63;;;;;;;5.12;100.00;101308.19;10605639;27;20031;-71
2022/12/07 12:17:07;;;;;;;11.18;2.20;;;;;;;4.93;100.00;101301.66;10604344;27;20043;-71
2022/12/07 12:22:17;;;;;;;8.23;1.52;;;;;;;4.73;100.00;101298.88;10570226;27;20518;-70
2022/12/07 12:27:29;;;;;;;5.40;1.42;;;;;;;4.59;100.00;101296.13;10580028;28;20167;-70
2022/12/07 12:32:38;;;;;;;5.00;1.63;;;;;;;4.54;100.00;101304.06;10580144;28;20111;-71
2022/12/07 12:37:41;;;;;;;12.05;3.28;;;;;;;4.41;100.00;101282.19;10580095;28;20039;-71
2022/12/07 12:42:47;;;;;;;11.90;3.03;;;;;;;4.35;100.00;101289.28;10578857;27;20035;-70
2022/12/07 12:48:03;;;;;;;9.27;2.08;;;;;;;4.21;100.00;101280.22;10559805;28;20390;-70
2022/12/07 12:53:14;;;;;;;6.63;2.30;;;;;;;4.08;100.00;101271.97;10569234;27;20529;-70
2022/12/07 12:58:17;;;;;;;7.95;1.40;;;;;;;4.60;100.00;101275.97;10548713;27;20040;-70
2022/12/07 13:03:26;;;;;;;5.97;1.55;;;;;;;4.39;100.00;101262.47;10567175;27;20040;-71
2022/12/07 13:08:27;;;;;;;6.43;1.65;;;;;;;4.25;100.00;101262.41;10571939;27;20047;-70
2022/12/07 13:13:31;;;;;;;5.47;1.02;;;;;;;4.00;100.00;101247.63;10604245;27;20035;-70
2022/12/07 13:18:32;;;;;;;4.93;1.30;;;;;;;3.91;100.00;101254.28;10598491;27;20047;-71
2022/12/07 13:23:44;;;;;;;2.85;1.10;;;;;;;3.92;100.00;101256.78;10629682;27;20123;-70
2022/12/07 13:28:49;;;;;;;9.75;2.08;;;;;;;3.88;100.00;101238.34;10630723;27;20443;-70
2022/12/07 13:33:49;;;;;;;8.20;1.42;;;;;;;3.92;100.00;101245.06;10611551;27;20042;-71
2022/12/07 13:38:52;;;;;;;8.32;2.55;;;;;;;3.80;100.00;101218.41;10630116;27;20035;-70
2022/12/07 13:43:58;;;;;;;13.63;7.30;;;;;;;3.78;100.00;101227.81;10629490;27;20035;-70
2022/12/07 13:48:59;;;;;;;12.63;5.10;;;;;;;3.75;100.00;101231.78;10625806;27;20038;-71
2022/12/07 13:54:01;;;;;;;9.30;3.83;;;;;;;3.84;100.00;101224.28;10577274;27;20055;-74
2022/12/07 13:59:02;;;;;;;4.95;2.45;;;;;;;3.83;100.00;101225.34;10548257;27;20061;-71
2022/12/07 14:04:39;;;;;;;5.50;1.90;;;;;;;3.91;100.00;101233.34;10584581;27;20028;-70
2022/12/07 14:09:39;;;;;;;4.40;1.05;;;;;;;3.97;100.00;101242.56;10583221;27;20052;-70
2022/12/07 14:14:40;;;;;;;5.32;0.82;;;;;;;3.94;100.00;101248.44;10587103;27;20040;-70
2022/12/07 14:19:57;;;;;;;8.52;1.35;;;;;;;3.77;100.00;101237.88;10568468;27;20028;-70
2022/12/07 14:25:17;;;;;;;5.43;1.00;;;;;;;3.79;100.00;101240.41;10586186;27;20039;-70
2022/12/07 14:30:18;;;;;;;7.70;1.55;;;;;;;3.61;100.00;101227.28;10586654;27;20047;-70
2022/12/07 14:35:19;;;;;;;7.30;1.65;;;;;;;3.38;100.00;101217.50;10583817;27;20047;-70
2022/12/07 14:40:24;;;;;;;3.22;1.33;;;;;;;3.20;100.00;101217.16;10547423;28;20041;-70
2022/12/07 14:45:24;;;;;;;4.30;1.35;;;;;;;2.99;100.00;101218.84;10541669;28;20043;-70
2022/12/07 14:50:25;;;;;;;2.75;1.65;;;;;;;2.82;100.00;101221.00;10542414;28;20031;-70
2022/12/07 14:55:29;;;;;;;3.80;0.95;;;;;;;2.72;100.00;101227.81;10543660;28;20040;-70
2022/12/07 15:00:29;;;;;;;4.68;2.45;;;;;;;2.58;100.00;101219.53;10559225;28;20063;-70
2022/12/07 15:05:30;;;;;;;4.15;0.77;;;;;;;2.43;100.00;101213.31;10524664;28;20032;-70
2022/12/07 15:10:32;;;;;;;2.97;0.88;;;;;;;2.46;100.00;101225.66;10570141;27;20043;-70
2022/12/07 15:15:33;;;;;;;0.80;0.80;;;;;;;2.36;100.00;101212.41;10549663;27;20127;-71
2022/12/07 15:20:33;;;;;;;1.63;0.80;;;;;;;2.24;100.00;101222.06;10526140;27;20450;-70
2022/12/07 15:25:34;;;;;;;3.37;1.63;;;;;;;2.18;100.00;101215.53;10545358;27;20518;-70
2022/12/07 15:30:36;;;;;;;8.75;4.90;;;;;;;2.07;100.00;101202.41;10520201;28;20569;-70
2022/12/07 15:35:41;;;;;;;8.70;5.53;;;;;;;2.06;100.00;101207.00;10549714;27;21219;-70
2022/12/07 15:40:41;;;;;;;10.35;3.60;;;;;;;2.12;100.00;101214.41;10555364;27;20594;-69
2022/12/07 15:45:42;;;;;;;6.23;2.27;;;;;;;2.18;100.00;101213.66;10522563;27;20032;-70
2022/12/07 15:50:42;;;;;;;4.83;1.70;;;;;;;2.32;100.00;101205.66;10551121;28;20046;-69
2022/12/07 15:55:43;;;;;;;6.38;1.98;;;;;;;2.39;100.00;101209.28;10547343;27;20080;-70
2022/12/07 16:00:43;;;;;;;11.05;2.05;;;;;;;2.44;100.00;101187.81;10564461;27;20051;-70
2022/12/07 16:05:50;;;;;;;2.67;1.70;;;;;;;2.44;100.00;101190.53;10563931;28;20036;-70
2022/12/07 16:10:51;;;;;;;4.70;1.80;;;;;;;2.46;100.00;101169.44;10556864;27;20040;-70
2022/12/07 16:15:51;;;;;;;4.82;2.17;;;;;;;2.33;100.00;101153.81;10558493;27;20259;-70
2022/12/07 16:20:52;;;;;;;4.00;1.98;;;;;;;2.41;100.00;101177.31;10564083;28;20047;-70
2022/12/07 16:25:52;;;;;;;5.13;2.13;;;;;;;2.46;100.00;101196.63;10564512;28;20043;-70
2022/12/07 16:31:00;;;;;;;10.15;2.03;;;;;;;2.37;100.00;101171.44;10563089;28;20040;-70
2022/12/07 16:36:01;;;;;;;4.80;1.75;;;;;;;2.39;100.00;101176.69;10566500;28;20046;-70
2022/12/07 16:41:01;;;;;;;6.40;2.50;;;;;;;2.39;100.00;101168.53;10517133;28;20623;-70
2022/12/07 16:46:02;;;;;;;5.13;2.50;;;;;;;2.36;100.00;101163.50;10478728;28;20032;-69
2022/12/07 16:51:08;;;;;;;6.65;1.90;;;;;;;2.44;100.00;101174.22;10563538;28;20035;-70
2022/12/07 16:56:13;;;;;;;3.10;1.87;;;;;;;2.44;100.00;101163.38;10557191;28;20047;-69
2022/12/07 17:01:21;;;;;;;3.20;2.25;;;;;;;2.50;100.00;101173.47;10518110;28;20071;-70
2022/12/07 17:06:26;;;;;;;5.38;2.65;;;;;;;2.58;100.00;101161.59;10563193;28;20031;-70
2022/12/07 17:11:28;;;;;;;6.57;3.78;;;;;;;2.58;100.00;101162.47;10527421;28;20052;-69
2022/12/07 17:16:28;;;;;;;4.47;2.30;;;;;;;2.50;100.00;101142.69;10531602;27;20078;-70
2022/12/07 17:21:29;;;;;;;6.00;2.15;;;;;;;2.34;100.00;101138.38;10557428;28;20042;-69
2022/12/07 17:26:30;;;;;;;5.25;1.95;;;;;;;2.32;100.00;101135.84;10547664;28;20043;-69
2022/12/07 17:31:32;;;;;;;6.43;2.55;;;;;;;2.26;100.00;101116.78;10573766;27;20038;-70
2022/12/07 17:36:32;;;;;;;5.20;2.50;;;;;;;2.20;100.00;101111.06;10601026;27;20081;-69
2022/12/07 17:46:57;;;;;;;5.40;2.10;;;;;;;2.16;100.00;101109.78;10602868;27;20031;-70
2022/12/07 17:57:17;;;;;;;3.67;1.60;;;;;;;2.12;100.00;101110.34;10586824;27;20039;-70
2022/12/07 18:02:17;;;;;;;2.95;2.60;;;;;;;1.98;100.00;101091.19;10563481;27;20415;-70
2022/12/07 18:07:18;;;;;;;9.73;7.37;;;;;;;2.06;100.00;101095.66;10588015;27;20459;-70
2022/12/07 18:12:18;;;;;;;7.40;5.10;;;;;;;2.05;100.00;101096.72;10584005;27;20035;-69
2022/12/07 18:17:19;;;;;;;6.10;3.50;;;;;;;2.05;100.00;101091.28;10587909;27;20043;-69
2022/12/07 18:22:19;;;;;;;3.28;2.03;;;;;;;1.98;100.00;101080.34;10578893;27;20078;-70
2022/12/07 18:27:20;;;;;;;5.22;2.22;;;;;;;2.11;100.00;101093.22;10585934;27;20036;-70
2022/12/07 18:32:20;;;;;;;9.60;3.92;;;;;;;2.13;100.00;101055.84;10586288;27;20046;-70
2022/12/07 18:37:26;;;;;;;12.18;7.97;;;;;;;2.05;100.00;101046.97;10581455;27;20097;-70
2022/12/07 18:42:26;;;;;;;13.90;8.67;;;;;;;2.13;100.00;101055.84;10588275;27;20031;-70
2022/12/07 18:47:27;;;;;;;16.80;10.48;;;;;;;2.06;100.00;101049.50;10573210;27;20063;-70
2022/12/07 18:52:27;;;;;;;14.85;10.52;;;;;;;2.05;100.00;101047.84;10583213;27;20040;-70
2022/12/07 18:57:31;;;;;;;11.95;9.32;;;;;;;2.01;100.00;101043.81;10565703;28;20032;-70
2022/12/07 19:02:31;;;;;;;18.90;11.70;;;;;;;1.89;100.00;101032.63;10562813;27;20382;-70
2022/12/07 19:07:32;;;;;;;17.60;10.70;;;;;;;1.85;100.00;101008.78;10565987;27;20036;-70
2022/12/07 19:12:33;;;;;;;13.33;6.40;;;;;;;1.84;100.00;101023.38;10565270;27;20035;-70
2022/12/07 19:17:34;;;;;;;6.63;3.92;;;;;;;1.86;100.00;101032.16;10566186;27;20050;-71
2022/12/07 19:22:35;;;;;;;6.05;3.53;;;;;;;1.84;100.00;101029.66;10581973;27;20050;-68
2022/12/07 19:27:35;;;;;;;6.97;3.58;;;;;;;1.68;100.00;101003.59;10573458;27;20049;-69
2022/12/07 19:32:39;;;;;;;6.83;3.00;;;;;;;1.77;100.00;101021.44;10624686;27;20092;-70
2022/12/07 19:37:40;;;;;;;6.73;3.93;;;;;;;1.80;100.00;101023.78;10620884;27;20069;-70
2022/12/07 19:42:40;;;;;;;4.23;3.03;;;;;;;1.77;100.00;101017.88;10623521;27;20064;-70
2022/12/07 19:47:41;;;;;;;4.50;3.58;;;;;;;1.74;100.00;101012.84;10623588;27;20027;-70
2022/12/07 19:52:41;;;;;;;4.85;3.88;;;;;;;1.60;100.00;100988.28;10622069;27;20046;-70
2022/12/07 19:57:42;;;;;;;6.65;4.75;;;;;;;1.69;100.00;100988.97;10604206;27;20047;-70
2022/12/07 20:02:42;;;;;;;9.23;5.15;;;;;;;1.63;100.00;100968.03;10623691;27;20035;-70
2022/12/07 20:07:43;;;;;;;7.55;4.70;;;;;;;1.72;100.00;100972.31;10613526;27;20042;-70
2022/12/07 20:18:02;;;;;;;12.67;7.70;;;;;;;1.79;100.00;100966.94;10617152;27;20050;-69
2022/12/07 20:23:03;;;;;;;11.03;7.83;;;;;;;1.38;100.00;100903.28;10619398;27;20031;-70
2022/12/07 20:28:03;;;;;;;8.63;5.82;;;;;;;1.50;100.00;100919.06;10598383;27;20055;-69
2022/12/07 20:33:04;;;;;;;8.93;4.57;;;;;;;1.55;100.00;100932.88;10622786;27;20035;-69
2022/12/07 20:38:04;;;;;;;9.63;6.80;;;;;;;1.58;100.00;100946.91;10604302;27;20103;-69
2022/12/07 20:43:05;;;;;;;9.97;6.73;;;;;;;1.56;100.00;100940.84;10621437;27;20039;-70
2022/12/07 20:48:05;;;;;;;13.63;4.50;;;;;;;1.51;100.00;100939.72;10604358;27;20023;-70
2022/12/07 20:53:06;;;;;;;8.00;3.38;;;;;;;1.44;100.00;100931.53;10598811;27;20058;-70
2022/12/07 20:58:06;;;;;;;6.23;3.33;;;;;;;1.41;100.00;100932.78;10604290;27;20032;-69
2022/12/07 21:03:08;;;;;;;6.38;3.80;;;;;;;1.29;100.00;100920.75;10622919;27;20437;-70
2022/12/07 21:08:08;;;;;;;11.25;5.18;;;;;;;1.22;100.00;100933.41;10622777;27;20051;-70
2022/12/07 21:13:09;;;;;;;12.30;5.23;;;;;;;1.17;100.00;100916.84;10616587;27;20111;-69
2022/12/07 21:18:09;;;;;;;7.57;4.90;;;;;;;1.22;100.00;100925.28;10643689;27;20050;-70
2022/12/07 21:23:09;;;;;;;8.93;5.78;;;;;;;1.17;100.00;100919.56;10628329;27;20050;-70
2022/12/07 21:28:11;;;;;;;8.07;5.38;;;;;;;1.26;100.00;100917.56;10629736;27;20046;-70
2022/12/07 21:33:12;;;;;;;12.00;5.83;;;;;;;1.39;100.00;100921.28;10591881;27;20391;-71
2022/12/07 21:38:12;;;;;;;11.18;5.55;;;;;;;1.45;100.00;100906.09;10626591;27;20118;-70
2022/12/07 21:43:14;;;;;;;16.63;8.97;;;;;;;1.55;100.00;100917.47;10626619;27;20055;-70
2022/12/07 21:48:15;;;;;;;9.00;6.65;;;;;;;1.58;100.00;100906.22;10623864;27;20130;-71
2022/12/07 21:53:15;;;;;;;12.60;6.60;;;;;;;1.19;100.00;100884.97;10609564;27;20076;-71
2022/12/07 21:58:16;;;;;;;9.45;6.07;;;;;;;1.46;100.00;100896.09;10582409;27;20035;-70
2022/12/07 22:03:16;;;;;;;14.38;7.13;;;;;;;1.35;100.00;100890.13;10608232;27;20031;-70
2022/12/07 22:08:17;;;;;;;13.68;8.48;;;;;;;1.30;100.00;100879.03;10584672;27;20064;-71
2022/12/07 22:13:18;;;;;;;22.53;13.07;;;;;;;1.14;100.00;100861.13;10583455;27;20035;-71
2022/12/07 22:18:19;;;;;;;20.52;12.90;;;;;;;1.12;100.00;100865.91;10584225;28;20032;-70
2022/12/07 22:23:19;;;;;;;24.73;11.30;;;;;;;1.17;100.00;100871.59;10583629;28;20051;-71
2022/12/07 22:28:19;;;;;;;19.40;10.70;;;;;;;1.10;100.00;100853.59;10552945;27;20043;-70
2022/12/07 22:33:20;;;;;;;15.18;9.32;;;;;;;0.27;100.00;100725.72;10581885;27;20047;-71
2022/12/07 22:38:20;;;;;;;11.40;6.70;;;;;;;1.06;100.00;100857.72;10595311;27;20032;-71
2022/12/07 22:43:21;;;;;;;9.47;5.03;;;;;;;1.07;100.00;100859.38;10583974;27;20031;-71
2022/12/07 22:48:22;;;;;;;9.20;4.37;;;;;;;1.01;100.00;100842.00;10566394;27;20038;-70
2022/12/07 22:53:22;;;;;;;9.93;4.77;;;;;;;0.96;100.00;100831.75;10582666;27;20039;-70
2022/12/07 22:58:24;;;;;;;6.93;4.57;;;;;;;0.97;100.00;100833.44;10568378;27;20047;-70
2022/12/07 23:03:24;;;;;;;6.20;4.40;;;;;;;1.16;100.00;100841.97;10583465;27;20060;-71
2022/12/07 23:08:25;;;;;;;11.43;6.60;;;;;;;1.27;100.00;100833.31;10614624;27;20507;-70
2022/12/07 23:13:31;;;;;;;21.07;10.70;;;;;;;1.35;100.00;100824.19;10617278;27;20754;-71
2022/12/07 23:18:32;;;;;;;28.73;14.75;;;;;;;1.31;100.00;100836.47;10613563;27;20050;-71
2022/12/07 23:23:32;;;;;;;22.17;14.10;;;;;;;1.30;100.00;100816.66;10604358;27;20039;-70
2022/12/07 23:28:33;;;;;;;23.73;14.70;;;;;;;1.18;100.00;100791.91;10579840;27;20065;-71